createdAt,value
2022-11-18T00:01:43.740Z,2.62
2022-11-18T00:06:42.621Z,3.50
2022-11-18T00:11:59.769Z,5.00
2022-11-18T00:16:59.281Z,5.32
2022-11-18T00:21:58.594Z,3.73
2022-11-18T00:26:57.676Z,2.54
2022-11-18T00:31:56.698Z,4.29
2022-11-18T00:36:55.642Z,2.85
2022-11-18T00:42:12.668Z,4.35
2022-11-18T00:47:11.784Z,3.96
2022-11-18T00:52:10.680Z,5.06
2022-11-18T00:57:09.690Z,3.00
2022-11-18T01:02:08.742Z,3.24
2022-11-18T01:07:07.825Z,3.48
2022-11-18T01:12:24.950Z,3.00
2022-11-18T01:17:23.544Z,4.82
2022-11-18T01:22:22.698Z,3.48
2022-11-18T01:27:21.799Z,4.02
2022-11-18T01:32:25.571Z,3.23
2022-11-18T01:37:21.687Z,4.17
2022-11-18T01:42:20.690Z,6.69
2022-11-18T01:47:19.696Z,4.79
2022-11-18T01:52:18.720Z,7.70
2022-11-18T01:57:18.006Z,5.81
2022-11-18T02:02:16.837Z,5.89
2022-11-18T02:07:15.891Z,4.88
2022-11-18T02:12:14.775Z,5.04
2022-11-18T02:17:13.646Z,6.92
2022-11-18T02:22:12.799Z,5.27
2022-11-18T02:27:11.778Z,6.22
2022-11-18T02:32:10.809Z,6.28
2022-11-18T02:37:09.818Z,6.10
2022-11-18T02:42:08.866Z,6.49
2022-11-18T02:47:07.828Z,8.66
2022-11-18T02:52:06.848Z,9.44
2022-11-18T02:57:05.674Z,6.49
2022-11-18T03:02:04.971Z,5.16
2022-11-18T03:07:05.255Z,6.63
2022-11-18T03:12:04.779Z,6.34
2022-11-18T03:17:03.745Z,4.21
2022-11-18T03:22:02.747Z,5.93
2022-11-18T03:27:02.198Z,5.93
2022-11-18T03:32:00.893Z,8.80
2022-11-18T03:37:00.943Z,8.26
2022-11-18T03:42:01.014Z,8.94
2022-11-18T03:46:59.900Z,8.08
2022-11-18T03:51:58.888Z,8.71
2022-11-18T03:56:57.894Z,9.80
2022-11-18T04:01:56.956Z,8.71
2022-11-18T04:06:56.013Z,7.09
2022-11-18T04:12:03.797Z,6.84
2022-11-18T04:17:02.634Z,11.66
2022-11-18T04:22:01.735Z,6.08
2022-11-18T04:27:02.159Z,7.23
2022-11-18T04:32:00.786Z,7.09
2022-11-18T04:36:59.791Z,7.02
2022-11-18T04:41:58.903Z,8.10
2022-11-18T04:46:58.350Z,7.32
2022-11-18T04:51:57.906Z,7.70
2022-11-18T04:56:56.874Z,8.40
2022-11-18T05:01:55.685Z,14.43
2022-11-18T05:06:54.755Z,10.09
2022-11-18T05:12:11.927Z,8.46
2022-11-18T05:17:10.642Z,12.31
2022-11-18T05:22:09.768Z,9.76
2022-11-18T05:27:08.731Z,8.50
2022-11-18T05:32:07.646Z,10.51
2022-11-18T05:37:06.866Z,9.56
2022-11-18T05:42:24.011Z,9.31
2022-11-18T05:47:24.484Z,6.77
2022-11-18T05:52:23.878Z,8.91
2022-11-18T05:57:22.782Z,9.88
2022-11-18T06:02:22.027Z,5.68
2022-11-18T06:07:20.748Z,8.91
2022-11-18T06:12:19.847Z,5.36
2022-11-18T06:17:18.790Z,9.35
2022-11-18T06:22:17.803Z,5.44
2022-11-18T06:27:17.263Z,9.65
2022-11-18T06:32:15.977Z,7.29
2022-11-18T06:37:14.711Z,15.66
2022-11-18T06:42:16.240Z,8.83
2022-11-18T06:47:15.323Z,9.98
2022-11-18T06:52:13.770Z,7.97
2022-11-18T06:57:12.900Z,11.03
2022-11-18T07:02:11.874Z,5.52
2022-11-18T07:07:10.833Z,7.89
2022-11-18T07:12:09.906Z,9.02
2022-11-18T07:17:08.911Z,7.58
2022-11-18T07:22:07.769Z,10.02
2022-11-18T07:27:06.921Z,5.52
2022-11-18T07:32:05.756Z,13.71
2022-11-18T07:37:04.973Z,6.12
2022-11-18T07:42:03.862Z,8.56
2022-11-18T07:47:02.883Z,5.98
2022-11-18T07:52:01.988Z,8.66
2022-11-18T07:57:00.984Z,5.96
2022-11-18T08:02:00.417Z,5.35
2022-11-18T08:06:59.864Z,6.35
2022-11-18T08:11:58.852Z,5.96
2022-11-18T08:16:57.882Z,7.40
2022-11-18T08:21:56.887Z,7.49
2022-11-18T08:26:55.880Z,4.75
2022-11-18T08:31:55.539Z,5.21
2022-11-18T08:36:54.825Z,5.99
2022-11-18T08:41:53.938Z,4.53
2022-11-18T08:46:52.967Z,5.01
2022-11-18T08:51:51.977Z,5.33
2022-11-18T08:56:51.013Z,7.97
2022-11-18T09:01:49.953Z,8.21
2022-11-18T09:06:49.023Z,6.75
2022-11-18T09:11:51.084Z,4.12
2022-11-18T09:16:49.893Z,7.53
2022-11-18T09:21:49.032Z,6.23
2022-11-18T09:26:49.369Z,4.74
2022-11-18T09:31:47.882Z,4.28
2022-11-18T09:36:47.036Z,6.48
2022-11-18T09:41:46.034Z,6.87
2022-11-18T09:46:44.989Z,4.79
2022-11-18T09:51:44.041Z,5.43
2022-11-18T09:56:43.043Z,4.28
2022-11-18T10:01:42.232Z,4.43
2022-11-18T10:06:41.056Z,3.60
2022-11-18T10:11:42.059Z,2.58
2022-11-18T10:16:41.681Z,2.90
2022-11-18T10:21:40.928Z,3.17
2022-11-18T10:26:40.433Z,1.71
2022-11-18T10:31:39.105Z,2.76
2022-11-18T10:36:41.040Z,2.60
2022-11-18T10:41:40.470Z,4.13
2022-11-18T10:46:41.964Z,2.70
2022-11-18T10:51:41.149Z,2.14
2022-11-18T10:56:39.953Z,4.36
2022-11-18T11:01:39.015Z,2.88
2022-11-18T11:06:38.152Z,4.06
2022-11-18T11:11:37.109Z,2.40
2022-11-18T11:16:36.009Z,3.67
2022-11-18T11:21:34.906Z,2.42
2022-11-18T11:31:35.069Z,3.93
2022-11-18T11:36:34.212Z,2.17
2022-11-18T11:41:32.918Z,4.00
2022-11-18T11:46:32.100Z,3.66
2022-11-18T11:51:31.122Z,3.82
2022-11-18T11:56:30.126Z,2.66
2022-11-18T12:01:29.143Z,3.35
2022-11-18T12:06:28.172Z,1.76
2022-11-18T12:11:27.423Z,2.04
2022-11-18T12:16:25.993Z,2.88
2022-11-18T12:21:25.066Z,4.14
2022-11-18T12:26:24.071Z,5.08
2022-11-18T12:31:23.099Z,2.14
2022-11-18T12:36:22.187Z,2.24
2022-11-18T12:41:22.944Z,1.29
2022-11-18T12:46:22.083Z,2.78
2022-11-18T12:51:21.215Z,4.94
2022-11-18T12:56:20.195Z,3.20
2022-11-18T13:01:19.106Z,2.97
2022-11-18T13:06:18.198Z,2.11
2022-11-18T13:11:35.218Z,1.75
2022-11-18T13:16:52.131Z,2.09
2022-11-18T13:22:09.575Z,1.91
2022-11-18T13:27:08.051Z,2.16
2022-11-18T13:32:07.712Z,2.24
2022-11-18T13:37:07.086Z,3.18
2022-11-18T13:42:06.095Z,3.61
2022-11-18T13:47:05.363Z,3.76
2022-11-18T13:52:04.131Z,4.10
2022-11-18T13:57:03.143Z,4.61
2022-11-18T14:02:02.160Z,3.59
2022-11-18T14:07:01.195Z,3.85
2022-11-18T14:12:00.183Z,3.69
2022-11-18T14:16:59.255Z,3.00
2022-11-18T14:21:58.260Z,2.75
2022-11-18T14:26:57.199Z,4.88
2022-11-18T14:31:56.210Z,3.09
2022-11-18T14:36:55.215Z,2.84
2022-11-18T14:41:54.241Z,3.27
2022-11-18T14:46:53.405Z,5.08
2022-11-18T14:51:52.534Z,2.92
2022-11-18T14:56:51.185Z,2.58
2022-11-18T15:01:50.215Z,2.66
2022-11-18T15:06:49.154Z,3.17
2022-11-18T15:11:48.013Z,4.54
2022-11-18T15:16:47.116Z,2.91
2022-11-18T15:21:46.219Z,3.83
2022-11-18T15:26:45.038Z,3.14
2022-11-18T15:31:44.249Z,4.25
2022-11-18T15:36:43.173Z,2.29
2022-11-18T15:41:42.731Z,2.88
2022-11-18T15:46:42.203Z,2.88
2022-11-18T15:51:41.241Z,2.54
2022-11-18T15:56:41.384Z,2.95
2022-11-18T16:01:40.516Z,3.78
2022-11-18T16:06:39.279Z,2.76
2022-11-18T16:11:56.373Z,3.51
2022-11-18T16:16:55.824Z,4.26
2022-11-18T16:21:55.150Z,3.34
2022-11-18T16:26:54.309Z,4.58
2022-11-18T16:31:53.868Z,5.34
2022-11-18T16:36:53.096Z,5.25
2022-11-18T16:41:52.214Z,4.99
2022-11-18T16:46:51.316Z,4.78
2022-11-18T16:51:50.579Z,4.78
2022-11-18T16:56:50.278Z,6.25
2022-11-18T17:01:49.922Z,5.24
2022-11-18T17:06:49.627Z,5.80
2022-11-18T17:11:48.326Z,4.13
2022-11-18T17:16:47.136Z,5.09
2022-11-18T17:21:46.168Z,5.56
2022-11-18T17:26:45.313Z,6.58
2022-11-18T17:31:44.163Z,5.85
2022-11-18T17:36:43.155Z,4.95
2022-11-18T17:42:00.279Z,5.35
2022-11-18T17:46:59.122Z,5.51
2022-11-18T17:51:58.225Z,6.06
2022-11-18T17:56:57.269Z,6.13
2022-11-18T18:01:59.624Z,6.05
2022-11-18T18:06:57.242Z,6.93
2022-11-18T18:11:56.372Z,7.43
2022-11-18T18:17:00.110Z,5.98
2022-11-18T18:21:59.273Z,6.14
2022-11-18T18:26:58.271Z,6.22
2022-11-18T18:31:57.998Z,8.30
2022-11-18T18:36:57.496Z,6.93
2022-11-18T18:41:56.364Z,5.62
2022-11-18T18:46:55.352Z,4.97
2022-11-18T18:51:55.869Z,8.15
2022-11-18T18:56:55.255Z,7.66
2022-11-18T19:01:54.170Z,8.66
2022-11-18T19:06:59.448Z,7.77
2022-11-18T19:12:12.684Z,8.64
2022-11-18T19:17:13.006Z,9.97
2022-11-18T19:22:13.066Z,7.45
2022-11-18T19:27:12.217Z,7.83
2022-11-18T19:32:11.096Z,10.31
2022-11-18T19:37:10.306Z,6.11
2022-11-18T19:42:10.301Z,8.56
2022-11-18T19:47:09.281Z,6.87
2022-11-18T19:52:08.300Z,7.73
2022-11-18T19:57:07.797Z,9.93
2022-11-18T20:02:06.345Z,5.59
2022-11-18T20:07:05.375Z,7.38
2022-11-18T20:12:04.157Z,11.03
2022-11-18T20:17:03.349Z,6.26
2022-11-18T20:22:02.269Z,11.01
2022-11-18T20:27:04.298Z,11.92
2022-11-18T20:32:03.157Z,10.47
2022-11-18T20:37:02.253Z,8.46
2022-11-18T20:42:19.519Z,10.55
2022-11-18T20:47:18.579Z,8.38
2022-11-18T20:52:17.314Z,9.78
2022-11-18T20:57:16.821Z,9.45
2022-11-18T21:02:15.216Z,7.99
2022-11-18T21:07:14.176Z,10.78
2022-11-18T21:12:13.386Z,9.23
2022-11-18T21:17:12.381Z,8.67
2022-11-18T21:22:11.461Z,8.92
2022-11-18T21:27:10.419Z,8.15
2022-11-18T21:32:09.308Z,8.07
2022-11-18T21:37:08.518Z,8.83
2022-11-18T21:42:07.563Z,10.43
2022-11-18T21:47:06.441Z,8.87
2022-11-18T21:52:05.465Z,7.63
2022-11-18T21:57:04.270Z,9.16
2022-11-18T22:02:03.600Z,6.37
2022-11-18T22:07:02.383Z,7.58
2022-11-18T22:12:01.297Z,8.68
2022-11-18T22:17:00.325Z,7.45
2022-11-18T22:21:59.349Z,7.46
2022-11-18T22:26:58.343Z,7.23
2022-11-18T22:31:57.369Z,7.28
2022-11-18T22:36:56.366Z,7.78
2022-11-18T22:42:13.682Z,6.24
2022-11-18T22:47:12.406Z,7.16
2022-11-18T22:52:11.428Z,8.68
2022-11-18T22:57:10.551Z,9.42
2022-11-18T23:02:09.460Z,9.34
2022-11-18T23:07:08.305Z,12.71
2022-11-18T23:12:25.428Z,9.11
2022-11-18T23:17:24.291Z,5.95
2022-11-18T23:22:23.521Z,8.28
2022-11-18T23:27:22.325Z,6.40
2022-11-18T23:32:21.656Z,7.40
2022-11-18T23:37:20.303Z,6.35
2022-11-18T23:42:19.479Z,4.31
2022-11-18T23:47:18.373Z,7.60
2022-11-18T23:52:17.500Z,6.30
2022-11-18T23:57:16.424Z,6.30
